Time;durP1;ratioP1;P1;durP2;ratioP2;P2;SDS_P1;SDS_P2;PMS_P1;PMS_P2;Temp;Humidity;BMP_temperature;BMP_pressure;BME280_temperature;BME280_humidity;BME280_pressure;Samples;Min_cycle;Max_cycle;Signal;HPM_P1;HPM_P2
2024/01/06 00:01:16;;;;;;;6.43;3.72;;;11.80;99.90;;;;;;5091708;28;20028;-45
2024/01/06 00:03:42;;;;;;;6.18;4.05;;;11.80;99.90;;;;;;5092516;28;20024;-45
2024/01/06 00:06:11;;;;;;;6.15;3.67;;;11.80;99.90;;;;;;5094455;28;20027;-44
2024/01/06 00:08:36;;;;;;;6.85;4.43;;;11.80;99.90;;;;;;5094459;28;20119;-46
2024/01/06 00:11:02;;;;;;;6.43;3.92;;;11.80;99.90;;;;;;5095802;28;20059;-44
2024/01/06 00:13:28;;;;;;;10.00;4.35;;;11.80;99.90;;;;;;5094317;28;20111;-45
2024/01/06 00:15:54;;;;;;;5.63;4.15;;;11.80;99.90;;;;;;5095627;28;20134;-45
2024/01/06 00:18:19;;;;;;;7.85;4.00;;;11.80;99.90;;;;;;5094866;28;20016;-45
2024/01/06 00:20:45;;;;;;;6.35;3.70;;;11.80;99.90;;;;;;5095012;28;20488;-45
2024/01/06 00:23:10;;;;;;;5.78;3.88;;;11.80;99.90;;;;;;5094014;28;20072;-43
2024/01/06 00:25:36;;;;;;;5.93;3.72;;;11.80;99.90;;;;;;5094062;28;20028;-44
2024/01/06 00:28:02;;;;;;;6.90;3.90;;;11.80;99.90;;;;;;5093681;28;20830;-44
2024/01/06 00:30:27;;;;;;;5.30;3.92;;;11.80;99.90;;;;;;5094590;28;20032;-45
2024/01/06 00:32:53;;;;;;;6.15;3.75;;;11.70;99.90;;;;;;5094463;28;20031;-44
2024/01/06 00:35:19;;;;;;;6.40;3.78;;;11.80;99.90;;;;;;5093970;28;20134;-45
2024/01/06 00:37:44;;;;;;;6.53;3.80;;;11.70;99.90;;;;;;5095275;28;20478;-44
2024/01/06 00:40:10;;;;;;;7.38;3.85;;;11.80;99.90;;;;;;5095317;28;20095;-45
2024/01/06 00:42:36;;;;;;;7.68;4.45;;;11.80;99.90;;;;;;5094752;28;20036;-44
2024/01/06 00:45:02;;;;;;;7.25;4.13;;;11.80;99.90;;;;;;5093731;28;20020;-44
2024/01/06 00:47:27;;;;;;;8.70;5.07;;;11.80;99.90;;;;;;5094862;28;20532;-43
2024/01/06 00:49:54;;;;;;;8.70;5.20;;;11.70;99.90;;;;;;5094786;28;20089;-44
2024/01/06 00:52:19;;;;;;;8.25;4.72;;;11.70;99.90;;;;;;5094094;28;20032;-44
2024/01/06 00:54:46;;;;;;;8.48;4.90;;;11.80;99.90;;;;;;5093799;28;20004;-44
2024/01/06 00:57:12;;;;;;;7.53;4.28;;;11.70;99.90;;;;;;5093958;28;20035;-45
2024/01/06 00:59:37;;;;;;;8.35;4.40;;;11.70;99.90;;;;;;5093421;28;20031;-45
2024/01/06 01:02:03;;;;;;;6.80;4.43;;;11.70;99.90;;;;;;5093387;28;20070;-45
2024/01/06 01:04:28;;;;;;;6.50;4.05;;;11.70;99.90;;;;;;5094649;28;20036;-44
2024/01/06 01:06:54;;;;;;;7.05;3.88;;;11.70;99.90;;;;;;5094418;28;20040;-44
2024/01/06 01:09:19;;;;;;;6.85;4.45;;;11.70;99.90;;;;;;5095241;28;20035;-44
2024/01/06 01:11:45;;;;;;;6.10;3.83;;;11.70;99.90;;;;;;5094635;28;20031;-45
2024/01/06 01:14:12;;;;;;;8.00;4.07;;;11.70;99.90;;;;;;5093887;28;20076;-44
2024/01/06 01:16:38;;;;;;;5.80;3.60;;;11.70;99.90;;;;;;5092987;28;20024;-44
2024/01/06 01:19:04;;;;;;;6.00;3.60;;;11.70;99.90;;;;;;5093672;28;20031;-44
2024/01/06 01:21:29;;;;;;;6.38;3.38;;;11.70;99.90;;;;;;5094185;28;20440;-44
2024/01/06 01:23:55;;;;;;;5.47;3.42;;;11.70;99.90;;;;;;5095675;28;20042;-44
2024/01/06 01:26:21;;;;;;;6.32;3.42;;;11.70;99.90;;;;;;5093182;28;20047;-45
2024/01/06 01:28:46;;;;;;;6.72;3.50;;;11.70;99.90;;;;;;5094289;28;20031;-45
2024/01/06 01:31:13;;;;;;;5.70;3.60;;;11.70;99.90;;;;;;5093845;28;20028;-44
2024/01/06 01:33:38;;;;;;;6.13;3.40;;;11.70;99.90;;;;;;5092948;28;20078;-45
2024/01/06 01:36:04;;;;;;;6.20;3.60;;;11.70;99.90;;;;;;5093151;28;20054;-45
2024/01/06 01:38:30;;;;;;;6.95;3.88;;;11.70;99.90;;;;;;5092698;28;20028;-45
2024/01/06 01:40:55;;;;;;;6.97;3.65;;;11.70;99.90;;;;;;5092821;28;20070;-44
2024/01/06 01:43:23;;;;;;;6.65;3.20;;;11.70;99.90;;;;;;5093277;28;20450;-45
2024/01/06 01:45:53;;;;;;;6.30;3.60;;;11.70;99.90;;;;;;5092634;28;20028;-45
2024/01/06 01:48:20;;;;;;;6.18;3.85;;;11.70;99.90;;;;;;5092374;28;20493;-45
2024/01/06 01:50:46;;;;;;;5.03;3.20;;;11.70;99.90;;;;;;5092574;28;20032;-44
2024/01/06 01:53:12;;;;;;;5.53;3.20;;;11.70;99.90;;;;;;5092320;28;20031;-45
2024/01/06 01:55:38;;;;;;;5.03;3.15;;;11.70;99.90;;;;;;5092447;28;20024;-43
2024/01/06 01:58:05;;;;;;;5.63;3.38;;;11.70;99.90;;;;;;5093426;28;20027;-45
2024/01/06 02:00:31;;;;;;;5.95;3.25;;;11.60;99.90;;;;;;5093605;28;20398;-45
2024/01/06 02:02:58;;;;;;;5.05;2.97;;;11.70;99.90;;;;;;5092699;28;20024;-45
2024/01/06 02:05:24;;;;;;;4.47;3.20;;;11.70;99.90;;;;;;5092709;28;20020;-45
2024/01/06 02:07:51;;;;;;;6.32;3.25;;;11.70;99.90;;;;;;5093335;28;20027;-45
2024/01/06 02:10:17;;;;;;;6.45;2.88;;;11.70;99.90;;;;;;5093448;28;20054;-45
2024/01/06 02:12:43;;;;;;;4.72;2.83;;;11.70;99.90;;;;;;5092612;28;20028;-45
2024/01/06 02:15:10;;;;;;;4.93;3.10;;;11.70;99.90;;;;;;5092909;28;20111;-45
2024/01/06 02:17:35;;;;;;;4.43;2.80;;;11.70;99.90;;;;;;5093519;28;20034;-45
2024/01/06 02:20:01;;;;;;;5.82;2.47;;;11.70;99.90;;;;;;5092850;28;20016;-45
2024/01/06 02:22:26;;;;;;;4.70;2.72;;;11.70;99.90;;;;;;5092304;28;20099;-45
2024/01/06 02:24:53;;;;;;;4.72;2.70;;;11.60;99.90;;;;;;5093211;28;20440;-44
2024/01/06 02:27:18;;;;;;;4.85;3.00;;;11.60;99.90;;;;;;5092191;28;20039;-44
2024/01/06 02:29:46;;;;;;;4.15;2.33;;;11.60;99.90;;;;;;5092404;28;20032;-45
2024/01/06 02:32:11;;;;;;;3.58;2.28;;;11.60;99.90;;;;;;5093059;28;20408;-45
2024/01/06 02:34:38;;;;;;;3.97;2.55;;;11.70;99.90;;;;;;5091901;28;20027;-44
2024/01/06 02:37:03;;;;;;;4.15;2.72;;;11.60;99.90;;;;;;5092280;28;20070;-45
2024/01/06 02:39:29;;;;;;;4.25;2.90;;;11.60;99.90;;;;;;5091518;28;20039;-44
2024/01/06 02:41:55;;;;;;;5.22;2.40;;;11.70;99.90;;;;;;5092459;28;20068;-45
2024/01/06 02:44:20;;;;;;;3.97;2.50;;;11.70;99.90;;;;;;5091523;28;20024;-45
2024/01/06 02:46:46;;;;;;;4.30;2.53;;;11.70;99.90;;;;;;5093021;28;20024;-45
2024/01/06 02:49:11;;;;;;;4.18;2.20;;;11.60;99.90;;;;;;5091671;28;20162;-44
2024/01/06 02:51:37;;;;;;;3.55;2.38;;;11.60;99.90;;;;;;5092652;28;20550;-45
2024/01/06 02:54:03;;;;;;;4.32;2.65;;;11.60;99.90;;;;;;5093065;28;20103;-42
2024/01/06 02:56:29;;;;;;;4.03;2.60;;;11.60;99.90;;;;;;5091322;28;20046;-45
2024/01/06 02:58:54;;;;;;;4.38;2.40;;;11.60;99.90;;;;;;5091254;28;20687;-45
2024/01/06 03:01:20;;;;;;;4.25;2.47;;;11.60;99.90;;;;;;5091408;28;20386;-44
2024/01/06 03:03:46;;;;;;;2.92;1.90;;;11.60;99.90;;;;;;5092278;28;20393;-44
2024/01/06 03:06:11;;;;;;;3.00;1.90;;;11.60;99.90;;;;;;5092057;28;20032;-45
2024/01/06 03:08:37;;;;;;;3.72;2.03;;;11.60;99.90;;;;;;5091967;28;20059;-45
2024/01/06 03:11:05;;;;;;;3.05;1.77;;;11.60;99.90;;;;;;5091254;28;20051;-44
2024/01/06 03:13:30;;;;;;;3.30;2.13;;;11.60;99.90;;;;;;5091301;28;20082;-45
2024/01/06 03:15:56;;;;;;;3.85;2.13;;;11.60;99.90;;;;;;5091221;28;20036;-45
2024/01/06 03:18:22;;;;;;;3.13;1.80;;;11.60;99.90;;;;;;5091950;28;20436;-45
2024/01/06 03:20:47;;;;;;;3.45;1.83;;;11.60;99.90;;;;;;5091179;28;20020;-44
2024/01/06 03:23:13;;;;;;;3.22;2.17;;;11.60;99.90;;;;;;5091778;28;20370;-45
2024/01/06 03:25:38;;;;;;;2.83;1.90;;;11.70;99.90;;;;;;5092106;28;20028;-45
2024/01/06 03:28:04;;;;;;;4.03;2.10;;;11.70;99.90;;;;;;5092173;28;20022;-45
2024/01/06 03:30:29;;;;;;;3.08;2.05;;;11.70;99.90;;;;;;5091792;28;20036;-44
2024/01/06 03:32:55;;;;;;;3.63;2.22;;;11.70;99.90;;;;;;5092151;28;20681;-45
2024/01/06 03:35:21;;;;;;;2.40;1.55;;;11.80;99.90;;;;;;5091477;28;20027;-45
2024/01/06 03:37:46;;;;;;;3.20;1.98;;;11.80;99.90;;;;;;5092114;28;20020;-44
2024/01/06 03:40:12;;;;;;;3.05;1.92;;;11.80;99.90;;;;;;5095065;28;20482;-45
2024/01/06 03:42:38;;;;;;;3.03;1.80;;;11.80;99.90;;;;;;5095095;28;20040;-44
2024/01/06 03:45:04;;;;;;;3.08;1.88;;;11.80;99.90;;;;;;5094885;28;20028;-45
2024/01/06 03:47:29;;;;;;;3.45;2.10;;;11.90;99.90;;;;;;5095368;28;20497;-43
2024/01/06 03:49:55;;;;;;;2.00;1.58;;;11.90;99.90;;;;;;5094820;28;20105;-45
2024/01/06 03:52:20;;;;;;;2.63;1.70;;;11.90;99.90;;;;;;5094677;28;20027;-45
2024/01/06 03:54:46;;;;;;;2.75;1.48;;;12.00;99.90;;;;;;5094772;28;20050;-45
2024/01/06 03:57:12;;;;;;;4.28;1.80;;;11.90;99.90;;;;;;5094617;28;20565;-45
2024/01/06 03:59:37;;;;;;;2.65;1.60;;;11.90;99.90;;;;;;5094739;28;20034;-45
2024/01/06 04:02:03;;;;;;;2.75;1.60;;;11.90;99.90;;;;;;5095092;28;20020;-45
2024/01/06 04:04:28;;;;;;;3.47;1.58;;;11.90;99.90;;;;;;5095648;28;20363;-45
2024/01/06 04:06:54;;;;;;;6.95;1.75;;;12.00;99.90;;;;;;5095825;28;20043;-44
2024/01/06 04:09:20;;;;;;;2.70;1.70;;;12.00;99.90;;;;;;5094378;28;20028;-44
2024/01/06 04:11:46;;;;;;;2.10;1.40;;;12.00;99.90;;;;;;5094465;28;20051;-45
2024/01/06 04:14:11;;;;;;;2.92;1.50;;;12.00;99.90;;;;;;5094973;28;20478;-44
2024/01/06 04:16:37;;;;;;;2.90;1.48;;;12.00;99.90;;;;;;5094982;28;20027;-45
2024/01/06 04:19:03;;;;;;;2.25;1.50;;;12.00;99.90;;;;;;5095042;28;20031;-44
2024/01/06 04:21:28;;;;;;;2.97;1.70;;;11.90;99.90;;;;;;5095313;28;20048;-45
2024/01/06 04:23:55;;;;;;;3.58;1.50;;;12.00;99.90;;;;;;5094466;28;20086;-45
2024/01/06 04:26:21;;;;;;;2.00;1.30;;;12.00;99.90;;;;;;5095118;28;20405;-44
2024/01/06 04:28:47;;;;;;;3.22;1.55;;;12.00;99.90;;;;;;5095206;28;20020;-44
2024/01/06 04:31:12;;;;;;;2.10;1.60;;;11.90;99.90;;;;;;5094793;28;20509;-45
2024/01/06 04:33:40;;;;;;;1.92;1.17;;;12.00;99.90;;;;;;5093930;28;20024;-43
2024/01/06 04:36:07;;;;;;;3.30;1.50;;;11.90;99.90;;;;;;5094385;28;20020;-45
2024/01/06 04:38:32;;;;;;;2.50;1.42;;;11.90;99.90;;;;;;5093770;28;20028;-45
2024/01/06 04:40:58;;;;;;;2.83;1.23;;;11.90;99.90;;;;;;5094313;28;20432;-45
2024/01/06 04:43:23;;;;;;;2.40;1.48;;;11.90;99.90;;;;;;5093994;28;20028;-43
2024/01/06 04:45:50;;;;;;;2.13;1.33;;;11.90;99.90;;;;;;5093757;28;20028;-45
2024/01/06 04:48:15;;;;;;;3.25;1.45;;;11.90;99.90;;;;;;5093607;28;20478;-44
2024/01/06 04:50:41;;;;;;;1.83;1.20;;;11.90;99.90;;;;;;5092430;28;20028;-44
2024/01/06 04:53:08;;;;;;;2.47;1.38;;;11.90;99.90;;;;;;5094479;28;20111;-44
2024/01/06 04:55:33;;;;;;;2.28;1.33;;;11.90;99.90;;;;;;5093685;28;20110;-46
2024/01/06 04:57:59;;;;;;;1.77;1.20;;;11.90;99.90;;;;;;5093443;28;20103;-44
2024/01/06 05:00:25;;;;;;;3.22;1.20;;;11.90;99.90;;;;;;5093602;28;20046;-44
2024/01/06 05:02:51;;;;;;;2.35;1.13;;;11.90;99.90;;;;;;5093495;28;20115;-45
2024/01/06 05:05:16;;;;;;;2.15;1.20;;;11.90;99.90;;;;;;5093455;28;20060;-45
2024/01/06 05:07:42;;;;;;;2.47;1.25;;;11.90;99.90;;;;;;5093359;28;20036;-44
2024/01/06 05:10:08;;;;;;;2.38;1.35;;;11.90;99.90;;;;;;5093375;28;20036;-45
2024/01/06 05:12:34;;;;;;;2.70;1.40;;;11.90;99.90;;;;;;5094081;28;20036;-45
2024/01/06 05:14:59;;;;;;;2.58;1.30;;;11.80;99.90;;;;;;5094221;28;20020;-45
2024/01/06 05:17:25;;;;;;;2.10;1.38;;;11.80;99.90;;;;;;5094764;28;20355;-44
2024/01/06 05:19:51;;;;;;;2.05;1.17;;;11.80;99.90;;;;;;5092639;28;20031;-43
2024/01/06 05:22:16;;;;;;;2.35;1.17;;;11.80;99.90;;;;;;5093430;28;20025;-44
2024/01/06 05:24:42;;;;;;;2.90;1.30;;;11.80;99.90;;;;;;5093189;28;20523;-44
2024/01/06 05:27:07;;;;;;;2.13;1.30;;;11.80;99.90;;;;;;5092971;28;20059;-44
2024/01/06 05:29:33;;;;;;;1.92;1.27;;;11.80;99.90;;;;;;5092698;28;20024;-45
2024/01/06 05:31:58;;;;;;;1.77;1.20;;;11.80;99.90;;;;;;5093277;28;20027;-45
2024/01/06 05:34:24;;;;;;;2.17;1.10;;;11.80;99.90;;;;;;5092870;28;20028;-45
2024/01/06 05:36:51;;;;;;;1.90;1.10;;;11.80;99.90;;;;;;5094004;28;20075;-44
2024/01/06 05:39:17;;;;;;;2.05;1.10;;;11.80;99.90;;;;;;5093114;28;20107;-44
2024/01/06 05:41:42;;;;;;;1.95;1.00;;;11.80;99.90;;;;;;5093490;28;20099;-45
2024/01/06 05:44:08;;;;;;;1.98;1.15;;;11.80;99.90;;;;;;5092764;28;20028;-45
2024/01/06 05:46:34;;;;;;;1.45;1.10;;;11.70;99.90;;;;;;5092561;28;20024;-45
2024/01/06 05:49:00;;;;;;;2.28;1.30;;;11.70;99.90;;;;;;5092543;28;20489;-45
2024/01/06 05:51:26;;;;;;;1.65;1.00;;;11.70;99.90;;;;;;5092453;28;20061;-44
2024/01/06 05:53:51;;;;;;;2.47;1.05;;;11.70;99.90;;;;;;5092556;28;20031;-45
2024/01/06 05:56:27;;;;;;;2.25;1.00;;;11.70;99.90;;;;;;5092296;28;20412;-44
2024/01/06 05:58:53;;;;;;;1.60;0.80;;;11.80;99.90;;;;;;5092706;28;20027;-45
2024/01/06 06:01:19;;;;;;;2.08;1.15;;;11.70;99.90;;;;;;5092933;28;20031;-45
2024/01/06 06:03:46;;;;;;;2.60;1.13;;;11.70;99.90;;;;;;5092297;28;20032;-45
2024/01/06 06:06:12;;;;;;;1.75;1.13;;;11.70;99.90;;;;;;5092232;28;20064;-44
2024/01/06 06:08:37;;;;;;;2.00;1.15;;;11.70;99.90;;;;;;5092170;28;20071;-44
2024/01/06 06:11:10;;;;;;;1.75;1.00;;;11.70;99.90;;;;;;5092933;28;20039;-44
2024/01/06 06:13:37;;;;;;;3.45;1.20;;;11.70;99.90;;;;;;5092428;28;20031;-44
2024/01/06 06:16:03;;;;;;;2.80;1.20;;;11.70;99.90;;;;;;5092514;28;20024;-45
2024/01/06 06:18:29;;;;;;;1.50;0.90;;;11.70;99.90;;;;;;5092909;28;20036;-44
2024/01/06 06:20:55;;;;;;;1.48;1.13;;;11.70;99.90;;;;;;5092265;28;20073;-45
2024/01/06 06:23:20;;;;;;;1.80;0.77;;;11.70;99.90;;;;;;5092738;28;20028;-44
2024/01/06 06:25:46;;;;;;;1.35;1.00;;;11.70;99.90;;;;;;5091833;28;20110;-45
2024/01/06 06:28:11;;;;;;;1.70;1.20;;;11.70;99.90;;;;;;5091943;28;20055;-43
2024/01/06 06:30:37;;;;;;;1.70;0.90;;;11.60;99.90;;;;;;5092410;28;20395;-44
2024/01/06 06:33:03;;;;;;;2.05;1.00;;;11.70;99.90;;;;;;5093794;28;20040;-45
2024/01/06 06:35:29;;;;;;;1.88;1.00;;;11.70;99.90;;;;;;5091845;28;20530;-44
2024/01/06 06:37:55;;;;;;;2.28;1.10;;;11.60;99.90;;;;;;5092673;28;20077;-45
2024/01/06 06:40:20;;;;;;;2.90;0.80;;;11.60;99.90;;;;;;5093529;28;20466;-45
2024/01/06 06:42:46;;;;;;;1.40;0.95;;;11.70;99.90;;;;;;5092827;28;20048;-45
2024/01/06 06:45:11;;;;;;;1.50;0.93;;;11.60;99.90;;;;;;5092951;28;20048;-45
2024/01/06 06:47:37;;;;;;;1.88;1.00;;;11.70;99.90;;;;;;5092136;28;20035;-45
2024/01/06 06:50:03;;;;;;;1.55;1.00;;;11.60;99.90;;;;;;5091428;28;20032;-43
2024/01/06 06:52:29;;;;;;;2.47;1.08;;;11.60;99.90;;;;;;5093496;28;20081;-44
2024/01/06 06:54:54;;;;;;;1.40;0.80;;;11.70;99.90;;;;;;5092476;28;20031;-45
2024/01/06 06:57:20;;;;;;;2.60;1.05;;;11.60;99.90;;;;;;5092663;28;20031;-45
2024/01/06 06:59:46;;;;;;;1.58;0.85;;;11.60;99.90;;;;;;5092260;28;20020;-45
2024/01/06 07:02:11;;;;;;;1.80;1.08;;;11.60;99.90;;;;;;5093604;28;20028;-43
2024/01/06 07:04:37;;;;;;;1.70;0.80;;;11.60;99.90;;;;;;5091681;28;20027;-45
2024/01/06 07:07:03;;;;;;;2.00;0.95;;;11.60;99.90;;;;;;5091881;28;20024;-45
2024/01/06 07:09:28;;;;;;;1.60;1.02;;;11.60;99.90;;;;;;5092305;28;20024;-45
2024/01/06 07:11:54;;;;;;;2.88;1.25;;;11.60;99.90;;;;;;5091863;28;20075;-44
2024/01/06 07:14:20;;;;;;;1.48;1.10;;;11.60;99.90;;;;;;5094160;28;20099;-45
2024/01/06 07:16:45;;;;;;;1.92;0.98;;;11.60;99.90;;;;;;5096234;28;20073;-45
2024/01/06 07:19:11;;;;;;;1.60;1.17;;;11.60;99.90;;;;;;5094687;28;20028;-45
2024/01/06 07:21:37;;;;;;;2.00;1.08;;;11.60;99.90;;;;;;5096244;28;20024;-44
2024/01/06 07:24:03;;;;;;;2.15;1.10;;;11.60;99.90;;;;;;5095224;28;20032;-45
2024/01/06 07:26:28;;;;;;;2.97;1.52;;;11.50;99.90;;;;;;5095759;28;20024;-45
2024/01/06 07:28:54;;;;;;;3.13;1.75;;;11.60;99.90;;;;;;5096243;28;20108;-45
2024/01/06 07:31:20;;;;;;;1.67;1.20;;;11.60;99.90;;;;;;5095275;28;20477;-45
2024/01/06 07:33:45;;;;;;;2.58;1.45;;;11.60;99.90;;;;;;5094930;28;20393;-45
2024/01/06 07:36:11;;;;;;;2.45;1.40;;;11.60;99.90;;;;;;5095087;28;20105;-45
2024/01/06 07:38:37;;;;;;;2.10;1.40;;;11.50;99.90;;;;;;5095033;28;20046;-45
2024/01/06 07:41:04;;;;;;;2.92;1.40;;;11.50;99.90;;;;;;5095158;28;20028;-45
2024/01/06 07:43:30;;;;;;;1.60;1.20;;;11.50;99.90;;;;;;5095339;28;20099;-45
2024/01/06 07:45:56;;;;;;;2.08;1.42;;;11.50;99.90;;;;;;5095313;28;20024;-44
2024/01/06 07:48:22;;;;;;;2.33;1.17;;;11.50;99.90;;;;;;5093321;28;20036;-44
2024/01/06 07:50:47;;;;;;;2.60;1.35;;;11.50;99.90;;;;;;5095870;28;20028;-45
2024/01/06 07:53:16;;;;;;;2.55;1.10;;;11.50;99.90;;;;;;5094733;28;20047;-45
2024/01/06 07:55:42;;;;;;;1.70;1.23;;;11.50;99.90;;;;;;5094781;28;20490;-44
2024/01/06 07:58:08;;;;;;;2.47;1.50;;;11.60;99.90;;;;;;5094557;28;20058;-45
2024/01/06 08:00:33;;;;;;;2.42;1.15;;;11.60;99.90;;;;;;5094706;28;20381;-46
2024/01/06 08:03:00;;;;;;;4.28;1.10;;;11.60;99.90;;;;;;5095049;28;20020;-45
2024/01/06 08:05:25;;;;;;;2.72;1.55;;;11.60;99.90;;;;;;5095192;28;20508;-45
2024/01/06 08:07:51;;;;;;;2.28;1.50;;;11.60;99.90;;;;;;5094513;28;20032;-44
2024/01/06 08:10:17;;;;;;;3.15;1.55;;;11.70;99.90;;;;;;5094531;28;20043;-44
2024/01/06 08:12:43;;;;;;;3.63;2.03;;;11.70;99.90;;;;;;5094349;28;20032;-44
2024/01/06 08:15:09;;;;;;;3.97;2.60;;;11.70;99.90;;;;;;5095016;28;20464;-44
2024/01/06 08:17:35;;;;;;;3.78;2.20;;;11.80;99.90;;;;;;5094588;28;20028;-44
2024/01/06 08:20:01;;;;;;;3.92;2.30;;;11.80;99.90;;;;;;5094807;28;20020;-44
2024/01/06 08:22:27;;;;;;;4.47;2.35;;;11.90;99.90;;;;;;5095023;28;20034;-45
2024/01/06 08:24:53;;;;;;;3.40;2.45;;;11.90;99.90;;;;;;5094876;28;20032;-45
2024/01/06 08:27:18;;;;;;;3.65;2.10;;;12.00;99.90;;;;;;5093643;28;20386;-44
2024/01/06 08:29:44;;;;;;;3.72;2.15;;;12.00;99.90;;;;;;5094040;28;20035;-45
2024/01/06 08:32:11;;;;;;;3.13;1.88;;;12.10;99.90;;;;;;5094941;28;20028;-45
2024/01/06 08:34:36;;;;;;;3.33;2.10;;;12.10;99.90;;;;;;5094784;28;20055;-45
2024/01/06 08:37:03;;;;;;;2.83;1.80;;;12.20;99.90;;;;;;5094873;28;20028;-45
2024/01/06 08:39:29;;;;;;;4.30;2.30;;;12.20;99.90;;;;;;5094328;28;20020;-44
2024/01/06 08:41:55;;;;;;;4.60;2.25;;;12.30;99.90;;;;;;5093882;28;20034;-44
2024/01/06 08:44:20;;;;;;;3.53;2.20;;;12.30;99.90;;;;;;5093895;28;20052;-45
2024/01/06 08:46:46;;;;;;;2.50;1.73;;;12.40;99.90;;;;;;5094157;28;20032;-44
2024/01/06 08:49:11;;;;;;;3.08;2.00;;;12.40;99.90;;;;;;5095161;28;20095;-45
2024/01/06 08:51:37;;;;;;;3.10;2.00;;;12.40;99.90;;;;;;5094369;28;20474;-45
2024/01/06 08:54:05;;;;;;;2.88;1.88;;;12.50;99.90;;;;;;5094207;28;20031;-44
2024/01/06 08:56:32;;;;;;;2.55;1.63;;;12.50;99.90;;;;;;5094354;28;20024;-45
2024/01/06 08:58:57;;;;;;;3.85;1.80;;;12.60;99.90;;;;;;5093432;28;20020;-43
2024/01/06 09:01:23;;;;;;;3.00;2.05;;;12.60;99.90;;;;;;5093993;28;20031;-44
2024/01/06 09:03:49;;;;;;;2.75;1.80;;;12.70;99.90;;;;;;5093743;28;20032;-45
2024/01/06 09:06:15;;;;;;;4.15;1.50;;;12.70;99.90;;;;;;5093363;28;20081;-44
2024/01/06 09:08:41;;;;;;;2.80;1.90;;;12.80;99.90;;;;;;5093150;28;20115;-45
2024/01/06 09:11:07;;;;;;;2.70;1.52;;;12.80;99.90;;;;;;5093956;28;20028;-45
2024/01/06 09:13:32;;;;;;;3.45;2.00;;;12.90;99.90;;;;;;5093942;28;20028;-44
2024/01/06 09:15:59;;;;;;;3.47;1.80;;;12.90;99.90;;;;;;5093100;28;20023;-45
2024/01/06 09:18:27;;;;;;;3.22;1.90;;;13.00;99.90;;;;;;5093515;28;20045;-45
2024/01/06 09:20:53;;;;;;;3.88;1.85;;;13.00;99.90;;;;;;5094648;28;20067;-44
2024/01/06 09:23:20;;;;;;;2.22;1.60;;;13.10;99.90;;;;;;5092845;28;20501;-45
2024/01/06 09:25:49;;;;;;;2.65;1.65;;;13.10;99.90;;;;;;5094241;28;20039;-45
2024/01/06 09:28:14;;;;;;;3.08;1.80;;;13.10;99.90;;;;;;5093861;28;20073;-44
2024/01/06 09:30:40;;;;;;;2.90;1.45;;;13.20;99.90;;;;;;5093802;28;20432;-44
2024/01/06 09:33:07;;;;;;;3.05;1.70;;;13.20;99.90;;;;;;5092794;28;20020;-45
2024/01/06 09:35:33;;;;;;;2.03;1.50;;;13.20;99.90;;;;;;5095103;28;20016;-44
2024/01/06 09:37:59;;;;;;;2.28;1.35;;;13.30;99.90;;;;;;5092878;28;20072;-45
2024/01/06 09:40:25;;;;;;;2.47;1.60;;;13.30;99.90;;;;;;5092772;28;20023;-44
2024/01/06 09:42:51;;;;;;;2.55;1.65;;;13.40;99.90;;;;;;5092663;28;20482;-45
2024/01/06 09:45:17;;;;;;;2.47;1.70;;;13.40;99.90;;;;;;5094015;28;20028;-45
2024/01/06 09:47:45;;;;;;;2.70;1.50;;;13.40;99.90;;;;;;5092841;28;20068;-45
2024/01/06 09:50:13;;;;;;;2.58;1.50;;;13.50;99.90;;;;;;5093015;28;20032;-45
2024/01/06 09:52:43;;;;;;;2.75;1.70;;;13.50;99.90;;;;;;5093287;28;20473;-44
2024/01/06 09:55:11;;;;;;;2.10;1.40;;;13.50;99.90;;;;;;5093270;28;20027;-44
2024/01/06 09:57:37;;;;;;;2.30;1.42;;;13.50;99.90;;;;;;5093719;28;20103;-45
2024/01/06 10:00:04;;;;;;;2.00;1.30;;;13.60;99.90;;;;;;5093053;28;20445;-44
2024/01/06 10:02:31;;;;;;;2.55;1.52;;;13.60;99.90;;;;;;5093763;28;20057;-44
2024/01/06 10:04:58;;;;;;;1.42;1.00;;;13.60;99.90;;;;;;5092947;28;20027;-45
2024/01/06 10:07:25;;;;;;;2.35;1.45;;;13.60;99.90;;;;;;5093693;28;20043;-45
2024/01/06 10:09:54;;;;;;;1.75;1.25;;;13.60;99.90;;;;;;5092943;28;20536;-44
2024/01/06 10:12:25;;;;;;;1.85;1.38;;;13.70;99.90;;;;;;5093186;28;20524;-45
2024/01/06 10:14:54;;;;;;;1.27;1.13;;;13.70;99.80;;;;;;5093399;28;20025;-45
2024/01/06 10:17:20;;;;;;;2.58;1.17;;;13.70;99.80;;;;;;5092055;28;20055;-45
2024/01/06 10:19:48;;;;;;;1.98;1.13;;;13.70;99.70;;;;;;5092130;28;20117;-45
2024/01/06 10:22:14;;;;;;;2.28;1.33;;;13.70;99.70;;;;;;5092615;28;20027;-44
2024/01/06 10:24:40;;;;;;;1.27;0.93;;;13.80;99.70;;;;;;5091773;28;20043;-45
2024/01/06 10:27:06;;;;;;;1.27;1.00;;;13.80;99.60;;;;;;5091983;28;20032;-44
2024/01/06 10:29:32;;;;;;;1.58;0.98;;;13.80;99.50;;;;;;5091613;28;20020;-45
2024/01/06 10:31:58;;;;;;;1.33;1.10;;;13.80;99.50;;;;;;5091651;28;20055;-45
2024/01/06 10:34:24;;;;;;;1.52;1.10;;;13.90;99.50;;;;;;5092225;28;20034;-45
2024/01/06 10:36:51;;;;;;;1.25;0.98;;;13.90;99.40;;;;;;5092196;28;20103;-45
2024/01/06 10:39:18;;;;;;;1.85;1.38;;;13.90;99.40;;;;;;5092809;28;20032;-45
2024/01/06 10:41:46;;;;;;;1.60;1.08;;;13.90;99.40;;;;;;5092314;28;20525;-45
2024/01/06 10:44:12;;;;;;;1.80;1.17;;;13.90;99.30;;;;;;5092441;28;20061;-45
2024/01/06 10:46:39;;;;;;;1.63;1.08;;;13.90;99.30;;;;;;5091568;28;20024;-44
2024/01/06 10:49:08;;;;;;;1.67;1.10;;;14.00;99.60;;;;;;5092237;28;20027;-45
2024/01/06 10:51:35;;;;;;;2.00;1.30;;;14.00;99.20;;;;;;5091756;28;20024;-44
2024/01/06 10:54:01;;;;;;;3.03;1.00;;;14.00;99.50;;;;;;5092025;28;20497;-44
2024/01/06 10:56:30;;;;;;;1.15;0.95;;;14.00;99.10;;;;;;5092099;28;20587;-45
2024/01/06 10:58:56;;;;;;;1.17;0.80;;;14.10;99.10;;;;;;5092580;28;20055;-45
2024/01/06 11:01:24;;;;;;;1.35;0.95;;;14.10;99.10;;;;;;5108105;28;20081;-46
2024/01/06 11:03:50;;;;;;;1.58;1.10;;;14.10;99.00;;;;;;5092221;28;20489;-45
2024/01/06 11:06:20;;;;;;;1.40;1.08;;;14.10;99.00;;;;;;5091839;28;20032;-44
2024/01/06 11:09:02;;;;;;;1.60;0.85;;;14.20;98.90;;;;;;5091281;28;20034;-45
2024/01/06 11:11:28;;;;;;;1.70;1.20;;;14.20;98.90;;;;;;5091375;28;20117;-45
2024/01/06 11:14:24;;;;;;;1.40;0.90;;;14.20;98.80;;;;;;5092256;28;20363;-44
2024/01/06 11:16:51;;;;;;;1.50;0.98;;;14.20;98.80;;;;;;5092393;28;20046;-44
2024/01/06 11:19:43;;;;;;;1.20;0.85;;;14.20;98.70;;;;;;5091116;28;20024;-45
2024/01/06 11:22:31;;;;;;;1.83;1.00;;;14.30;98.70;;;;;;5091908;28;20028;-45
2024/01/06 11:25:07;;;;;;;1.55;0.90;;;14.30;98.60;;;;;;5091576;28;20497;-45
2024/01/06 11:27:33;;;;;;;0.93;0.70;;;14.30;98.60;;;;;;5091589;28;20450;-47
2024/01/06 11:30:05;;;;;;;1.42;0.90;;;14.30;98.60;;;;;;5091657;28;20463;-44
2024/01/06 11:32:38;;;;;;;0.90;0.70;;;14.40;98.60;;;;;;5092161;28;20032;-45
2024/01/06 11:35:23;;;;;;;0.98;0.88;;;14.40;98.50;;;;;;5091955;28;20099;-44
2024/01/06 11:37:49;;;;;;;0.90;0.80;;;14.40;98.50;;;;;;5091913;28;20103;-44
2024/01/06 11:40:21;;;;;;;1.17;0.88;;;14.40;98.50;;;;;;5091480;28;20051;-44
2024/01/06 11:43:11;;;;;;;1.20;0.90;;;14.40;98.40;;;;;;5091604;28;20108;-45
2024/01/06 11:45:40;;;;;;;1.17;0.90;;;14.40;98.40;;;;;;5092254;28;20032;-42
2024/01/06 11:48:07;;;;;;;1.23;0.80;;;14.40;98.40;;;;;;5091554;28;20101;-45
2024/01/06 11:50:34;;;;;;;1.42;0.95;;;14.50;98.40;;;;;;5091032;28;20432;-44
2024/01/06 11:53:01;;;;;;;1.70;0.95;;;14.50;98.40;;;;;;5090995;28;20040;-45
2024/01/06 11:55:34;;;;;;;1.27;0.77;;;14.50;98.40;;;;;;5092348;28;20236;-44
2024/01/06 11:58:02;;;;;;;1.48;0.80;;;14.50;98.30;;;;;;5090734;28;20069;-45
2024/01/06 12:00:29;;;;;;;0.93;0.80;;;14.50;98.30;;;;;;5093613;28;20517;-45
2024/01/06 12:02:59;;;;;;;1.08;0.90;;;14.50;98.30;;;;;;5094681;28;20032;-44
2024/01/06 12:05:26;;;;;;;0.90;0.70;;;14.50;98.20;;;;;;5095363;28;20027;-45
2024/01/06 12:08:06;;;;;;;1.00;0.80;;;14.50;98.20;;;;;;5096152;28;20085;-45
2024/01/06 12:10:32;;;;;;;1.35;0.95;;;14.60;98.20;;;;;;5095486;28;20063;-45
2024/01/06 12:13:07;;;;;;;1.02;0.80;;;14.50;98.20;;;;;;5094204;28;20035;-44
2024/01/06 12:15:33;;;;;;;1.15;0.90;;;14.60;98.20;;;;;;5094943;28;20021;-45
2024/01/06 12:18:02;;;;;;;1.45;0.90;;;14.60;98.20;;;;;;5095070;28;20077;-44
2024/01/06 12:20:28;;;;;;;1.00;0.70;;;14.60;98.20;;;;;;5094359;28;20111;-45
2024/01/06 12:22:55;;;;;;;1.08;0.70;;;14.60;98.10;;;;;;5094229;28;20051;-45
2024/01/06 12:25:25;;;;;;;1.02;0.68;;;14.60;98.10;;;;;;5094594;28;20164;-44
2024/01/06 12:27:52;;;;;;;0.85;0.68;;;14.60;98.10;;;;;;5094042;28;20474;-45
2024/01/06 12:30:19;;;;;;;1.00;0.85;;;14.70;98.10;;;;;;5094771;28;20036;-45
2024/01/06 12:32:49;;;;;;;0.65;0.60;;;14.70;98.10;;;;;;5095110;28;20035;-44
2024/01/06 12:35:16;;;;;;;1.00;0.80;;;14.70;98.00;;;;;;5094133;28;20016;-45
2024/01/06 12:37:43;;;;;;;1.17;0.85;;;14.70;98.00;;;;;;5094415;28;20443;-45
2024/01/06 12:40:10;;;;;;;1.75;0.85;;;14.70;98.00;;;;;;5094065;28;20493;-45
2024/01/06 12:42:36;;;;;;;1.13;0.70;;;14.70;98.00;;;;;;5094030;28;20032;-45
2024/01/06 12:45:02;;;;;;;1.25;0.88;;;14.70;98.00;;;;;;5094122;28;20038;-44